sensor_id;sensor_type;location;lat;lon;timestamp;P1;durP1;ratioP1;P2;durP2;ratioP2
43962;SDS011;29622;45.534;9.242;2024-03-23T01:05:12;82.68;;;40.88;;
43962;SDS011;29622;45.534;9.242;2024-03-23T01:20:13;80.80;;;41.95;;
43962;SDS011;29622;45.534;9.242;2024-03-23T01:35:17;93.70;;;40.70;;
43962;SDS011;29622;45.534;9.242;2024-03-23T01:50:18;51.72;;;25.42;;
43962;SDS011;29622;45.534;9.242;2024-03-23T02:05:23;58.00;;;29.05;;
43962;SDS011;29622;45.534;9.242;2024-03-23T02:20:24;72.45;;;35.17;;
43962;SDS011;29622;45.534;9.242;2024-03-23T02:35:25;75.53;;;37.78;;
43962;SDS011;29622;45.534;9.242;2024-03-23T02:50:26;74.45;;;37.53;;
43962;SDS011;29622;45.534;9.242;2024-03-23T03:05:27;79.97;;;36.08;;
43962;SDS011;29622;45.534;9.242;2024-03-23T03:20:27;77.25;;;37.72;;
43962;SDS011;29622;45.534;9.242;2024-03-23T03:35:28;84.97;;;38.80;;
43962;SDS011;29622;45.534;9.242;2024-03-23T03:50:30;82.40;;;39.25;;
43962;SDS011;29622;45.534;9.242;2024-03-23T04:05:31;21.20;;;11.80;;
43962;SDS011;29622;45.534;9.242;2024-03-23T04:20:32;79.90;;;37.53;;
43962;SDS011;29622;45.534;9.242;2024-03-23T04:35:33;60.55;;;28.20;;
43962;SDS011;29622;45.534;9.242;2024-03-23T04:50:36;77.80;;;36.63;;
43962;SDS011;29622;45.534;9.242;2024-03-23T05:05:38;78.38;;;37.33;;
43962;SDS011;29622;45.534;9.242;2024-03-23T05:20:39;90.80;;;38.88;;
43962;SDS011;29622;45.534;9.242;2024-03-23T05:35:40;52.85;;;23.52;;
43962;SDS011;29622;45.534;9.242;2024-03-23T05:50:41;52.70;;;24.73;;
43962;SDS011;29622;45.534;9.242;2024-03-23T06:05:43;72.32;;;35.70;;
43962;SDS011;29622;45.534;9.242;2024-03-23T06:20:46;79.43;;;37.08;;
43962;SDS011;29622;45.534;9.242;2024-03-23T06:35:51;82.83;;;38.93;;
43962;SDS011;29622;45.534;9.242;2024-03-23T06:50:58;72.15;;;35.85;;
43962;SDS011;29622;45.534;9.242;2024-03-23T07:05:59;79.75;;;37.70;;
43962;SDS011;29622;45.534;9.242;2024-03-23T07:21:00;70.50;;;33.45;;
43962;SDS011;29622;45.534;9.242;2024-03-23T07:36:01;63.20;;;29.13;;
43962;SDS011;29622;45.534;9.242;2024-03-23T07:51:07;50.67;;;24.92;;
43962;SDS011;29622;45.534;9.242;2024-03-23T08:06:17;54.80;;;22.95;;
43962;SDS011;29622;45.534;9.242;2024-03-23T08:21:25;34.63;;;17.00;;
43962;SDS011;29622;45.534;9.242;2024-03-23T08:36:26;32.75;;;17.88;;
43962;SDS011;29622;45.534;9.242;2024-03-23T08:51:27;21.00;;;8.32;;
43962;SDS011;29622;45.534;9.242;2024-03-23T09:06:28;20.00;;;11.63;;
43962;SDS011;29622;45.534;9.242;2024-03-23T09:21:29;18.63;;;10.03;;
43962;SDS011;29622;45.534;9.242;2024-03-23T09:36:33;20.27;;;10.88;;
43962;SDS011;29622;45.534;9.242;2024-03-23T10:07:11;22.30;;;11.75;;
43962;SDS011;29622;45.534;9.242;2024-03-23T10:22:25;21.67;;;12.25;;
43962;SDS011;29622;45.534;9.242;2024-03-23T10:37:29;22.23;;;11.52;;
43962;SDS011;29622;45.534;9.242;2024-03-23T10:52:31;25.92;;;11.77;;
43962;SDS011;29622;45.534;9.242;2024-03-23T11:07:35;28.05;;;14.05;;
43962;SDS011;29622;45.534;9.242;2024-03-23T11:22:43;24.20;;;13.63;;
43962;SDS011;29622;45.534;9.242;2024-03-23T11:37:47;31.05;;;15.48;;
43962;SDS011;29622;45.534;9.242;2024-03-23T11:53:20;31.48;;;17.00;;
43962;SDS011;29622;45.534;9.242;2024-03-23T12:08:29;38.50;;;18.85;;
43962;SDS011;29622;45.534;9.242;2024-03-23T12:23:30;26.65;;;14.52;;
43962;SDS011;29622;45.534;9.242;2024-03-23T12:38:32;35.10;;;17.08;;
43962;SDS011;29622;45.534;9.242;2024-03-23T12:53:42;36.97;;;19.42;;
43962;SDS011;29622;45.534;9.242;2024-03-23T13:08:44;49.55;;;24.10;;
43962;SDS011;29622;45.534;9.242;2024-03-23T13:23:48;25.60;;;14.48;;
43962;SDS011;29622;45.534;9.242;2024-03-23T13:38:51;40.45;;;21.65;;
43962;SDS011;29622;45.534;9.242;2024-03-23T13:53:55;31.92;;;17.33;;
43962;SDS011;29622;45.534;9.242;2024-03-23T14:09:01;12.53;;;6.00;;
43962;SDS011;29622;45.534;9.242;2024-03-23T14:24:04;19.40;;;9.00;;
43962;SDS011;29622;45.534;9.242;2024-03-23T14:39:05;23.90;;;11.48;;
43962;SDS011;29622;45.534;9.242;2024-03-23T14:54:06;21.20;;;10.00;;
43962;SDS011;29622;45.534;9.242;2024-03-23T15:09:07;27.92;;;12.85;;
43962;SDS011;29622;45.534;9.242;2024-03-23T15:24:11;34.20;;;16.38;;
43962;SDS011;29622;45.534;9.242;2024-03-23T15:39:12;30.85;;;15.85;;
43962;SDS011;29622;45.534;9.242;2024-03-23T15:54:14;27.65;;;14.30;;
43962;SDS011;29622;45.534;9.242;2024-03-23T16:09:24;27.25;;;15.75;;
43962;SDS011;29622;45.534;9.242;2024-03-23T16:25:12;34.72;;;16.40;;
43962;SDS011;29622;45.534;9.242;2024-03-23T16:40:13;8.45;;;4.65;;
43962;SDS011;29622;45.534;9.242;2024-03-23T16:55:46;33.97;;;14.95;;
43962;SDS011;29622;45.534;9.242;2024-03-23T17:10:59;32.47;;;16.20;;
43962;SDS011;29622;45.534;9.242;2024-03-23T17:26:05;32.25;;;15.68;;
43962;SDS011;29622;45.534;9.242;2024-03-23T17:41:07;23.95;;;13.75;;
43962;SDS011;29622;45.534;9.242;2024-03-23T17:56:13;24.23;;;12.73;;
43962;SDS011;29622;45.534;9.242;2024-03-23T18:11:14;26.95;;;14.32;;
43962;SDS011;29622;45.534;9.242;2024-03-23T18:26:16;25.38;;;10.40;;
43962;SDS011;29622;45.534;9.242;2024-03-23T18:42:40;14.38;;;6.90;;
43962;SDS011;29622;45.534;9.242;2024-03-23T18:57:40;9.07;;;4.63;;
43962;SDS011;29622;45.534;9.242;2024-03-23T19:21:42;5.10;;;2.13;;
43962;SDS011;29622;45.534;9.242;2024-03-23T19:40:15;3.65;;;1.55;;
43962;SDS011;29622;45.534;9.242;2024-03-23T19:55:15;5.20;;;1.70;;
43962;SDS011;29622;45.534;9.242;2024-03-23T20:10:16;2.80;;;1.20;;
43962;SDS011;29622;45.534;9.242;2024-03-23T20:25:17;3.10;;;1.50;;
43962;SDS011;29622;45.534;9.242;2024-03-23T20:40:18;6.32;;;1.58;;
43962;SDS011;29622;45.534;9.242;2024-03-23T20:55:18;5.45;;;1.52;;
43962;SDS011;29622;45.534;9.242;2024-03-23T21:10:19;3.47;;;0.95;;
43962;SDS011;29622;45.534;9.242;2024-03-23T21:25:19;3.85;;;0.63;;
43962;SDS011;29622;45.534;9.242;2024-03-23T21:40:20;2.20;;;0.70;;
43962;SDS011;29622;45.534;9.242;2024-03-23T21:55:20;2.58;;;0.50;;
43962;SDS011;29622;45.534;9.242;2024-03-23T22:10:21;5.30;;;1.38;;
43962;SDS011;29622;45.534;9.242;2024-03-23T22:25:22;7.03;;;1.10;;
43962;SDS011;29622;45.534;9.242;2024-03-23T22:40:23;1.23;;;0.52;;
43962;SDS011;29622;45.534;9.242;2024-03-23T22:55:26;4.32;;;0.90;;
43962;SDS011;29622;45.534;9.242;2024-03-23T23:10:27;3.13;;;0.60;;
43962;SDS011;29622;45.534;9.242;2024-03-23T23:25:28;1.23;;;0.70;;
43962;SDS011;29622;45.534;9.242;2024-03-23T23:40:28;3.53;;;0.40;;
43962;SDS011;29622;45.534;9.242;2024-03-23T23:55:30;1.95;;;0.75;;
